createdAt,value
2022-12-29T00:00:30.792Z,4.97
2022-12-29T00:03:22.340Z,6.22
2022-12-29T00:06:09.386Z,4.85
2022-12-29T00:08:56.597Z,3.52
2022-12-29T00:11:47.234Z,4.78
2022-12-29T00:14:52.394Z,4.80
2022-12-29T00:17:39.881Z,4.92
2022-12-29T00:20:45.544Z,4.50
2022-12-29T00:23:52.573Z,5.53
2022-12-29T00:26:57.608Z,6.70
2022-12-29T00:30:02.988Z,3.00
2022-12-29T00:33:08.537Z,3.72
2022-12-29T00:36:02.335Z,4.05
2022-12-29T00:39:16.248Z,4.95
2022-12-29T00:42:27.163Z,4.92
2022-12-29T00:45:14.575Z,4.58
2022-12-29T00:48:02.071Z,5.17
2022-12-29T00:50:49.393Z,4.80
2022-12-29T00:53:37.443Z,3.83
2022-12-29T00:56:24.624Z,4.47
2022-12-29T00:59:12.977Z,4.78
2022-12-29T01:02:00.829Z,3.00
2022-12-29T01:04:48.438Z,3.55
2022-12-29T01:07:35.866Z,4.58
2022-12-29T01:10:24.547Z,2.55
2022-12-29T01:13:11.920Z,3.87
2022-12-29T01:15:59.287Z,4.95
2022-12-29T01:18:46.788Z,3.98
2022-12-29T01:21:34.726Z,3.22
2022-12-29T01:24:25.146Z,3.77
2022-12-29T01:27:12.270Z,3.70
2022-12-29T01:29:59.763Z,2.35
2022-12-29T01:32:47.316Z,3.22
2022-12-29T01:35:34.835Z,3.58
2022-12-29T01:38:24.104Z,3.80
2022-12-29T01:41:13.637Z,4.55
2022-12-29T01:44:05.145Z,3.45
2022-12-29T01:46:54.145Z,3.98
2022-12-29T01:49:41.805Z,2.85
2022-12-29T01:52:32.446Z,3.47
2022-12-29T01:55:20.315Z,3.60
2022-12-29T01:58:08.509Z,3.10
2022-12-29T02:00:56.034Z,2.55
2022-12-29T02:03:43.625Z,2.50
2022-12-29T02:06:36.751Z,3.72
2022-12-29T02:09:26.976Z,5.35
2022-12-29T02:12:15.037Z,2.42
2022-12-29T02:15:05.649Z,4.65
2022-12-29T02:18:02.084Z,3.50
2022-12-29T02:21:04.251Z,4.05
2022-12-29T02:24:07.989Z,1.67
2022-12-29T02:27:33.154Z,3.70
2022-12-29T02:30:50.829Z,2.02
2022-12-29T02:34:00.754Z,3.15
2022-12-29T02:37:09.175Z,3.17
2022-12-29T02:40:08.784Z,3.70
2022-12-29T02:43:27.957Z,3.12
2022-12-29T02:46:18.475Z,3.77
2022-12-29T02:49:20.960Z,2.55
2022-12-29T02:52:11.462Z,5.78
2022-12-29T02:55:00.292Z,5.08
2022-12-29T02:57:47.722Z,2.33
2022-12-29T03:00:36.632Z,3.42
2022-12-29T03:03:40.324Z,3.35
2022-12-29T03:06:47.001Z,2.33
2022-12-29T03:09:46.344Z,3.27
2022-12-29T03:13:11.649Z,1.37
2022-12-29T03:16:03.305Z,3.85
2022-12-29T03:19:10.688Z,2.58
2022-12-29T03:22:25.198Z,1.87
2022-12-29T03:25:15.999Z,5.15
2022-12-29T03:28:10.060Z,3.50
2022-12-29T03:31:00.785Z,1.85
2022-12-29T03:33:49.758Z,1.82
2022-12-29T03:36:40.346Z,0.98
2022-12-29T03:39:28.228Z,2.67
2022-12-29T03:42:25.844Z,2.37
2022-12-29T03:45:13.603Z,1.90
2022-12-29T03:48:01.341Z,2.15
2022-12-29T03:50:48.657Z,5.72
2022-12-29T03:53:36.011Z,2.62
2022-12-29T03:56:26.115Z,2.62
2022-12-29T03:59:13.564Z,4.00
2022-12-29T04:02:01.187Z,4.28
2022-12-29T04:04:49.947Z,2.35
2022-12-29T04:07:36.987Z,2.62
2022-12-29T04:10:27.253Z,2.30
2022-12-29T04:13:14.661Z,2.22
2022-12-29T04:16:04.224Z,4.17
2022-12-29T04:18:52.476Z,4.58
2022-12-29T04:21:39.938Z,3.30
2022-12-29T04:24:27.307Z,4.08
2022-12-29T04:27:14.657Z,1.62
2022-12-29T04:30:02.024Z,3.75
2022-12-29T04:32:49.475Z,3.77
2022-12-29T04:35:36.803Z,2.67
2022-12-29T04:38:28.071Z,3.85
2022-12-29T04:41:15.698Z,4.35
2022-12-29T04:44:03.064Z,6.20
2022-12-29T04:46:50.224Z,3.90
2022-12-29T04:49:37.759Z,10.23
2022-12-29T04:52:25.238Z,4.60
2022-12-29T04:55:13.049Z,6.42
2022-12-29T04:58:00.323Z,4.65
2022-12-29T05:00:47.923Z,5.10
2022-12-29T05:03:35.367Z,4.42
2022-12-29T05:06:26.007Z,2.10
2022-12-29T05:09:13.381Z,2.55
2022-12-29T05:12:01.157Z,3.22
2022-12-29T05:14:48.646Z,1.92
2022-12-29T05:17:36.057Z,2.75
2022-12-29T05:20:24.736Z,1.62
2022-12-29T05:23:12.560Z,2.20
2022-12-29T05:26:00.059Z,4.65
2022-12-29T05:28:47.595Z,4.28
2022-12-29T05:31:37.720Z,2.40
2022-12-29T05:34:24.847Z,1.92
2022-12-29T05:37:12.330Z,3.12
2022-12-29T05:40:00.242Z,6.62
2022-12-29T05:42:47.202Z,2.47
2022-12-29T05:45:34.706Z,4.30
2022-12-29T05:48:23.027Z,3.27
2022-12-29T05:51:10.524Z,5.50
2022-12-29T05:53:57.699Z,3.52
2022-12-29T05:56:44.834Z,2.90
2022-12-29T05:59:32.079Z,5.15
2022-12-29T06:02:19.425Z,4.08
2022-12-29T06:05:07.160Z,2.25
2022-12-29T06:07:54.532Z,3.70
2022-12-29T06:10:42.067Z,2.90
2022-12-29T06:13:29.718Z,5.97
2022-12-29T06:16:17.189Z,2.47
2022-12-29T06:19:04.794Z,2.85
2022-12-29T06:21:53.911Z,1.60
2022-12-29T06:24:41.472Z,3.77
2022-12-29T06:27:28.737Z,2.45
2022-12-29T06:30:17.138Z,5.28
2022-12-29T06:33:05.259Z,3.25
2022-12-29T06:35:54.037Z,2.60
2022-12-29T06:38:41.331Z,1.85
2022-12-29T06:41:32.158Z,2.33
2022-12-29T06:44:17.289Z,2.85
2022-12-29T06:47:04.841Z,2.75
2022-12-29T06:49:55.206Z,4.50
2022-12-29T06:52:42.847Z,2.02
2022-12-29T06:55:30.086Z,4.33
2022-12-29T06:58:17.277Z,2.62
2022-12-29T07:01:05.076Z,3.85
2022-12-29T07:03:54.066Z,4.35
2022-12-29T07:06:41.748Z,2.17
2022-12-29T07:09:29.233Z,6.55
2022-12-29T07:12:16.615Z,4.83
2022-12-29T07:15:04.892Z,7.62
2022-12-29T07:17:53.152Z,3.25
2022-12-29T07:20:40.531Z,6.53
2022-12-29T07:23:28.031Z,2.72
2022-12-29T07:26:19.757Z,3.45
2022-12-29T07:29:06.869Z,2.75
2022-12-29T07:31:55.989Z,5.05
2022-12-29T07:34:43.194Z,2.42
2022-12-29T07:37:30.573Z,4.20
2022-12-29T07:40:18.403Z,6.17
2022-12-29T07:43:05.899Z,4.58
2022-12-29T07:45:55.055Z,5.50
2022-12-29T07:48:42.018Z,3.33
2022-12-29T07:51:29.585Z,4.33
2022-12-29T07:54:18.515Z,6.00
2022-12-29T07:57:07.139Z,5.20
2022-12-29T07:59:54.668Z,5.15
2022-12-29T08:02:42.188Z,7.05
2022-12-29T08:05:29.894Z,9.85
2022-12-29T08:08:17.466Z,10.85
2022-12-29T08:11:07.755Z,3.77
2022-12-29T08:13:55.194Z,5.00
2022-12-29T08:16:44.163Z,3.98
2022-12-29T08:19:31.118Z,3.50
2022-12-29T08:22:18.587Z,7.10
2022-12-29T08:25:05.979Z,5.58
2022-12-29T08:27:55.985Z,4.05
2022-12-29T08:30:43.508Z,2.87
2022-12-29T08:33:31.395Z,5.33
2022-12-29T08:36:18.929Z,5.35
2022-12-29T08:39:06.481Z,4.70
2022-12-29T08:41:55.581Z,3.83
2022-12-29T08:44:43.183Z,2.30
2022-12-29T08:47:30.737Z,6.30
2022-12-29T08:50:18.500Z,3.65
2022-12-29T08:53:05.771Z,4.47
2022-12-29T08:56:04.045Z,5.35
2022-12-29T08:58:48.160Z,5.12
2022-12-29T09:01:36.884Z,4.87
2022-12-29T09:04:24.737Z,4.95
2022-12-29T09:07:11.882Z,6.83
2022-12-29T09:09:59.163Z,6.75
2022-12-29T09:12:46.426Z,4.33
2022-12-29T09:15:33.621Z,6.15
2022-12-29T09:18:22.573Z,5.05
2022-12-29T09:21:11.912Z,6.87
2022-12-29T09:23:58.862Z,7.00
2022-12-29T09:26:47.203Z,7.22
2022-12-29T09:29:34.551Z,6.35
2022-12-29T09:32:23.660Z,6.00
2022-12-29T09:35:11.117Z,6.20
2022-12-29T09:37:58.586Z,3.75
2022-12-29T09:40:48.958Z,7.08
2022-12-29T09:44:02.308Z,4.45
2022-12-29T09:46:55.737Z,3.70
2022-12-29T09:49:47.137Z,4.42
2022-12-29T09:52:40.506Z,4.92
2022-12-29T09:55:50.913Z,3.87
2022-12-29T09:58:53.184Z,3.00
2022-12-29T10:01:55.754Z,5.42
2022-12-29T10:04:44.941Z,2.00
2022-12-29T10:07:53.277Z,5.47
2022-12-29T10:11:00.174Z,3.62
2022-12-29T10:14:10.874Z,2.77
2022-12-29T10:17:14.470Z,4.50
2022-12-29T10:20:07.716Z,5.72
2022-12-29T10:23:23.718Z,3.33
2022-12-29T10:26:16.860Z,7.30
2022-12-29T10:29:06.811Z,3.42
2022-12-29T10:32:19.679Z,2.87
2022-12-29T10:35:22.399Z,2.87
2022-12-29T10:38:18.777Z,2.02
2022-12-29T10:41:26.754Z,3.05
2022-12-29T10:44:19.533Z,3.10
2022-12-29T10:47:10.235Z,2.50
2022-12-29T10:49:59.277Z,4.83
2022-12-29T10:52:47.773Z,5.70
2022-12-29T10:55:38.120Z,2.70
2022-12-29T10:58:27.434Z,2.15
2022-12-29T11:01:16.666Z,2.42
2022-12-29T11:04:07.007Z,1.77
2022-12-29T11:06:54.522Z,2.33
2022-12-29T11:09:43.580Z,1.50
2022-12-29T11:12:32.572Z,2.00
2022-12-29T11:15:19.845Z,2.35
2022-12-29T11:18:08.775Z,3.10
2022-12-29T11:21:00.312Z,1.22
2022-12-29T11:23:50.553Z,2.85
2022-12-29T11:26:37.687Z,1.82
2022-12-29T11:29:41.138Z,3.10
2022-12-29T11:32:33.023Z,3.42
2022-12-29T11:35:35.624Z,2.72
2022-12-29T11:38:26.063Z,2.20
2022-12-29T11:41:15.472Z,3.45
2022-12-29T11:44:06.239Z,3.15
2022-12-29T11:46:54.533Z,4.08
2022-12-29T11:49:41.797Z,2.58
2022-12-29T11:52:33.995Z,4.78
2022-12-29T11:55:24.748Z,2.92
2022-12-29T11:58:15.002Z,3.20
2022-12-29T12:01:10.969Z,1.30
2022-12-29T12:04:07.721Z,2.45
2022-12-29T12:07:18.991Z,2.85
2022-12-29T12:10:08.871Z,3.83
2022-12-29T12:12:59.175Z,2.02
2022-12-29T12:15:54.535Z,2.85
2022-12-29T12:18:59.915Z,2.00
2022-12-29T12:21:50.122Z,1.85
2022-12-29T12:24:43.386Z,1.92
2022-12-29T12:28:01.569Z,3.08
2022-12-29T12:30:53.799Z,4.97
2022-12-29T12:33:43.905Z,1.90
2022-12-29T12:37:06.361Z,3.47
2022-12-29T12:40:25.745Z,2.52
2022-12-29T12:43:32.909Z,1.60
2022-12-29T12:46:39.321Z,2.85
2022-12-29T12:49:38.297Z,2.33
2022-12-29T12:52:56.200Z,3.47
2022-12-29T12:56:16.782Z,2.58
2022-12-29T12:59:25.232Z,2.55
2022-12-29T13:02:24.426Z,3.77
2022-12-29T13:05:29.831Z,2.90
2022-12-29T13:08:31.488Z,3.50
2022-12-29T13:11:41.283Z,1.22
2022-12-29T13:14:49.532Z,3.90
2022-12-29T13:17:58.057Z,3.08
2022-12-29T13:20:48.832Z,4.50
2022-12-29T13:23:53.963Z,3.62
2022-12-29T13:27:10.186Z,1.55
2022-12-29T13:30:02.203Z,4.17
2022-12-29T13:32:58.889Z,5.83
2022-12-29T13:36:07.897Z,3.12
2022-12-29T13:39:04.653Z,4.35
2022-12-29T13:41:57.384Z,3.37
2022-12-29T13:44:59.164Z,6.72
2022-12-29T13:47:50.859Z,2.80
2022-12-29T13:50:40.663Z,3.00
2022-12-29T13:53:37.302Z,2.20
2022-12-29T13:56:30.125Z,1.98
2022-12-29T13:59:20.358Z,4.50
2022-12-29T14:02:34.523Z,4.97
2022-12-29T14:05:28.056Z,2.75
2022-12-29T14:08:19.806Z,5.42
2022-12-29T14:11:12.948Z,2.10
2022-12-29T14:14:01.462Z,2.40
2022-12-29T14:16:49.185Z,2.67
2022-12-29T14:19:41.269Z,5.95
2022-12-29T14:25:01.808Z,9.17
2022-12-29T14:27:55.830Z,4.62
2022-12-29T14:30:55.499Z,5.00
2022-12-29T14:34:02.579Z,5.80
2022-12-29T14:37:03.298Z,4.95
2022-12-29T14:39:50.502Z,4.90
2022-12-29T14:42:41.213Z,5.90
2022-12-29T14:45:34.224Z,7.37
2022-12-29T14:48:27.464Z,3.65
2022-12-29T14:51:23.845Z,4.90
2022-12-29T14:54:36.654Z,4.23
2022-12-29T14:57:45.367Z,3.05
2022-12-29T15:00:37.411Z,4.00
2022-12-29T15:03:37.428Z,3.83
2022-12-29T15:06:27.877Z,5.78
2022-12-29T15:09:24.307Z,2.87
2022-12-29T15:12:32.897Z,4.47
2022-12-29T15:15:30.886Z,6.70
2022-12-29T15:18:34.768Z,3.20
2022-12-29T15:21:27.845Z,2.72
2022-12-29T15:24:16.056Z,5.35
2022-12-29T15:27:05.624Z,3.30
2022-12-29T15:30:03.857Z,10.75
2022-12-29T15:32:54.174Z,3.30
2022-12-29T15:35:41.413Z,4.70
2022-12-29T15:38:37.092Z,6.70
2022-12-29T15:41:36.737Z,5.70
2022-12-29T15:44:29.984Z,3.92
2022-12-29T15:47:19.851Z,8.63
2022-12-29T15:50:10.062Z,3.20
2022-12-29T15:52:58.782Z,4.15
2022-12-29T15:55:49.705Z,4.92
2022-12-29T15:58:54.746Z,4.25
2022-12-29T16:01:44.639Z,2.98
2022-12-29T16:04:48.597Z,4.95
2022-12-29T16:07:29.377Z,3.80
2022-12-29T16:10:30.217Z,3.25
2022-12-29T16:13:40.436Z,5.90
2022-12-29T16:16:33.778Z,4.20
2022-12-29T16:19:24.097Z,3.62
2022-12-29T16:22:14.588Z,6.10
2022-12-29T16:25:26.938Z,4.28
2022-12-29T16:28:25.747Z,5.85
2022-12-29T16:31:25.686Z,6.75
2022-12-29T16:34:27.645Z,6.20
2022-12-29T16:37:39.274Z,5.12
2022-12-29T16:40:29.325Z,4.55
2022-12-29T16:43:28.567Z,4.03
2022-12-29T16:46:31.287Z,3.15
2022-12-29T16:49:23.103Z,5.28
2022-12-29T16:52:28.289Z,4.45
2022-12-29T16:55:23.413Z,4.00
2022-12-29T16:58:13.601Z,5.97
2022-12-29T17:01:04.682Z,7.42
2022-12-29T17:03:58.122Z,5.08
2022-12-29T17:06:45.286Z,9.30
2022-12-29T17:09:32.468Z,6.35
2022-12-29T17:12:23.721Z,4.87
2022-12-29T17:15:30.771Z,5.08
2022-12-29T17:18:18.255Z,6.55
2022-12-29T17:21:05.308Z,4.33
2022-12-29T17:23:56.271Z,6.28
2022-12-29T17:26:43.803Z,5.40
2022-12-29T17:29:37.389Z,6.70
2022-12-29T17:32:26.802Z,6.80
2022-12-29T17:35:24.112Z,4.05
2022-12-29T17:38:41.956Z,6.42
2022-12-29T17:41:31.488Z,9.10
2022-12-29T17:44:22.470Z,6.50
2022-12-29T17:47:12.682Z,6.37
2022-12-29T17:50:00.873Z,6.53
2022-12-29T17:53:00.736Z,7.47
2022-12-29T17:55:45.717Z,10.03
2022-12-29T17:58:34.466Z,5.28
2022-12-29T18:01:28.934Z,6.42
2022-12-29T18:04:17.058Z,8.70
2022-12-29T18:07:07.222Z,5.55
2022-12-29T18:09:54.420Z,9.95
2022-12-29T18:12:50.727Z,9.35
2022-12-29T18:15:38.296Z,6.15
2022-12-29T18:18:28.190Z,9.08
2022-12-29T18:21:22.856Z,9.13
2022-12-29T18:24:14.453Z,9.45
2022-12-29T18:27:02.397Z,15.28
2022-12-29T18:29:50.615Z,10.43
2022-12-29T18:32:37.808Z,8.18
2022-12-29T18:35:31.135Z,8.05
2022-12-29T18:38:18.656Z,7.53
2022-12-29T18:41:06.775Z,7.30
2022-12-29T18:44:07.686Z,6.03
2022-12-29T18:46:55.066Z,10.48
2022-12-29T18:49:42.304Z,8.55
2022-12-29T18:52:29.904Z,11.15
2022-12-29T18:55:23.249Z,6.03
2022-12-29T18:58:10.437Z,11.93
2022-12-29T19:00:58.190Z,7.78
2022-12-29T19:03:45.593Z,7.97
2022-12-29T19:06:32.968Z,7.80
2022-12-29T19:09:20.470Z,7.25
2022-12-29T19:12:09.651Z,8.68
2022-12-29T19:15:01.088Z,7.72
2022-12-29T19:18:01.913Z,4.58
2022-12-29T19:20:40.197Z,9.75
2022-12-29T19:23:28.497Z,11.25
2022-12-29T19:26:31.018Z,12.13
2022-12-29T19:29:18.409Z,9.90
2022-12-29T19:32:05.957Z,8.00
2022-12-29T19:34:57.881Z,12.50
2022-12-29T19:37:45.282Z,8.90
2022-12-29T19:40:32.989Z,10.85
2022-12-29T19:43:20.631Z,10.75
2022-12-29T19:46:14.358Z,8.50
2022-12-29T19:49:01.992Z,7.72
2022-12-29T19:51:49.544Z,8.30
2022-12-29T19:54:36.890Z,12.10
2022-12-29T19:57:27.499Z,10.90
2022-12-29T20:00:15.074Z,9.93
2022-12-29T20:03:02.375Z,6.97
2022-12-29T20:05:53.973Z,11.12
2022-12-29T20:08:41.631Z,9.48
2022-12-29T20:11:29.067Z,7.58
2022-12-29T20:14:17.025Z,11.22
2022-12-29T20:17:11.882Z,9.30
2022-12-29T20:19:55.771Z,8.78
2022-12-29T20:22:43.408Z,11.05
2022-12-29T20:25:47.698Z,12.90
2022-12-29T20:28:20.347Z,8.15
2022-12-29T20:31:13.071Z,7.15
2022-12-29T20:33:59.789Z,10.48
2022-12-29T20:36:49.304Z,10.45
2022-12-29T20:39:37.659Z,10.98
2022-12-29T20:42:24.863Z,11.20
2022-12-29T20:45:12.124Z,10.32
2022-12-29T20:47:59.501Z,15.10
2022-12-29T20:50:46.705Z,15.30
2022-12-29T20:53:34.636Z,14.07
2022-12-29T20:56:28.029Z,8.40
2022-12-29T20:59:27.518Z,8.80
2022-12-29T21:02:07.213Z,10.88
2022-12-29T21:05:22.695Z,11.40
2022-12-29T21:07:43.536Z,9.20
2022-12-29T21:10:31.003Z,10.48
2022-12-29T21:13:20.496Z,8.43
2022-12-29T21:16:10.336Z,7.20
2022-12-29T21:18:58.225Z,10.43
2022-12-29T21:21:45.385Z,6.90
2022-12-29T21:24:32.688Z,12.05
2022-12-29T21:27:20.043Z,10.38
2022-12-29T21:30:08.204Z,14.68
2022-12-29T21:32:55.191Z,12.25
2022-12-29T21:35:45.905Z,11.15
2022-12-29T21:38:33.775Z,13.95
2022-12-29T21:41:24.028Z,13.08
2022-12-29T21:44:29.429Z,13.95
2022-12-29T21:47:16.839Z,13.95
2022-12-29T21:50:04.022Z,8.13
2022-12-29T21:52:54.388Z,11.73
2022-12-29T21:55:41.882Z,10.93
2022-12-29T21:58:46.934Z,12.25
2022-12-29T22:01:54.565Z,8.55
2022-12-29T22:05:00.310Z,9.85
2022-12-29T22:08:06.042Z,10.75
2022-12-29T22:11:14.448Z,8.25
2022-12-29T22:14:01.603Z,7.65
2022-12-29T22:16:49.173Z,13.30
2022-12-29T22:19:36.724Z,10.70
2022-12-29T22:22:25.483Z,9.83
2022-12-29T22:25:12.566Z,10.78
2022-12-29T22:28:00.221Z,8.53
2022-12-29T22:30:47.525Z,12.65
2022-12-29T22:33:34.875Z,7.75
2022-12-29T22:36:23.773Z,9.03
2022-12-29T22:39:12.007Z,10.53
2022-12-29T22:41:59.248Z,11.15
2022-12-29T22:44:46.826Z,15.83
2022-12-29T22:47:34.349Z,6.58
2022-12-29T22:50:24.649Z,8.03
2022-12-29T22:53:11.843Z,7.67
2022-12-29T22:56:04.430Z,15.43
2022-12-29T22:58:54.506Z,10.30
2022-12-29T23:01:42.579Z,15.00
2022-12-29T23:07:18.896Z,11.78
2022-12-29T23:10:06.295Z,15.53
2022-12-29T23:12:53.702Z,12.37
2022-12-29T23:15:41.051Z,11.00
2022-12-29T23:18:28.877Z,12.37
2022-12-29T23:21:18.599Z,13.70
2022-12-29T23:24:06.296Z,10.80
2022-12-29T23:26:57.248Z,13.88
2022-12-29T23:29:44.545Z,11.40
2022-12-29T23:32:31.933Z,11.38
2022-12-29T23:35:19.525Z,10.90
2022-12-29T23:38:07.000Z,15.93
2022-12-29T23:40:54.547Z,10.25
2022-12-29T23:43:41.885Z,9.73
2022-12-29T23:46:31.425Z,13.13
2022-12-29T23:49:18.949Z,12.75
2022-12-29T23:52:06.276Z,11.35
2022-12-29T23:54:55.180Z,11.50
2022-12-29T23:57:42.437Z,11.83
